KBTM/BTM METAR and TAF weather

Enter ICAO airport designator
Station Type Date Time Source
KBTM METAR 2019/06/17 11:53 UTC NOAA

KBTM 171153Z AUTO 00000KT 10SM BKN110 09/07 A3012 RMK AO2 SLP153 70005 T00940072 10139 20094 55001


Station Type Date Time Source
KBTM Decoded METAR 2019/06/17 11:53 UTC NOAA

BERT MOONEY AIRPORT, MT, United States (KBTM) 45-58N 112-30W 1688M
Jun 17, 2019 - 07:53 AM EDT / 2019.06.17 1153 UTC
Wind: Calm:0
Visibility: 10 mile(s):0
Sky conditions: mostly cloudy
Temperature: 48.9 F (9.4 C)
Dew Point: 45.0 F (7.2 C)
Relative Humidity: 86%
Pressure (altimeter): 30.12 in. Hg (1019 hPa)
Pressure tendency: 0.00 inches (0.1 hPa) lower than three hours ago
ob: KBTM 171153Z AUTO 00000KT 10SM BKN110 09/07 A3012 RMK AO2 SLP153 70005 T00940072 10139 20094 55001
cycle: 12

Station Type Date Time Source
KBTM TAF 2019/06/17 12:22 UTC NOAA

TAF KBTM 171120Z 1712/1812 15005KT P6SM BKN100
FM172000 30010KT P6SM VCTS BKN070CB
FM180100 33008KT P6SM VCSH BKN070
FM180300 VRB03KT P6SM SCT070

Example: see airport list